sensor_id;sensor_type;location;lat;lon;timestamp;pressure;altitude;pressure_sealevel;temperature;humidity
30935;BME280;51033;42.648;23.292;2022-11-15T00:01:37;94394.06;;;7.00;52.42
30935;BME280;51033;42.648;23.292;2022-11-15T00:04:04;94423.63;;;7.12;52.83
30935;BME280;51033;42.648;23.292;2022-11-15T00:06:30;94424.91;;;7.14;52.46
30935;BME280;51033;42.648;23.292;2022-11-15T00:08:59;94419.63;;;7.14;52.33
30935;BME280;51033;42.648;23.292;2022-11-15T00:11:25;94424.13;;;7.14;52.71
30935;BME280;51033;42.648;23.292;2022-11-15T00:13:51;94395.16;;;6.99;52.40
30935;BME280;51033;42.648;23.292;2022-11-15T00:16:16;94397.50;;;7.00;52.50
30935;BME280;51033;42.648;23.292;2022-11-15T00:18:42;94395.16;;;6.99;52.59
30935;BME280;51033;42.648;23.292;2022-11-15T00:21:10;94409.06;;;7.09;52.39
30935;BME280;51033;42.648;23.292;2022-11-15T00:23:36;94410.44;;;7.07;52.37
30935;BME280;51033;42.648;23.292;2022-11-15T00:26:06;94369.84;;;6.88;52.43
30935;BME280;51033;42.648;23.292;2022-11-15T00:28:31;94385.41;;;6.94;52.36
30935;BME280;51033;42.648;23.292;2022-11-15T00:31:05;94383.78;;;6.98;52.44
30935;BME280;51033;42.648;23.292;2022-11-15T00:33:31;94398.00;;;7.07;52.68
30935;BME280;51033;42.648;23.292;2022-11-15T00:36:04;94388.78;;;7.00;52.32
30935;BME280;51033;42.648;23.292;2022-11-15T00:38:32;94401.97;;;7.05;52.69
30935;BME280;51033;42.648;23.292;2022-11-15T00:40:57;94393.53;;;7.03;52.71
30935;BME280;51033;42.648;23.292;2022-11-15T00:43:23;94391.19;;;6.96;52.57
30935;BME280;51033;42.648;23.292;2022-11-15T00:45:48;94375.13;;;6.88;52.58
30935;BME280;51033;42.648;23.292;2022-11-15T00:48:14;94368.31;;;6.81;52.43
30935;BME280;51033;42.648;23.292;2022-11-15T00:50:39;94369.91;;;6.77;52.70
30935;BME280;51033;42.648;23.292;2022-11-15T00:53:04;94398.09;;;6.92;52.65
30935;BME280;51033;42.648;23.292;2022-11-15T00:55:30;94394.16;;;6.90;52.65
30935;BME280;51033;42.648;23.292;2022-11-15T00:57:55;94383.38;;;6.81;52.49
30935;BME280;51033;42.648;23.292;2022-11-15T01:00:20;94392.06;;;6.86;52.77
30935;BME280;51033;42.648;23.292;2022-11-15T01:02:46;94388.91;;;6.84;52.58
30935;BME280;51033;42.648;23.292;2022-11-15T01:05:11;94384.69;;;6.83;53.00
30935;BME280;51033;42.648;23.292;2022-11-15T01:07:36;94384.16;;;6.81;52.87
30935;BME280;51033;42.648;23.292;2022-11-15T01:10:03;94386.31;;;6.79;53.04
30935;BME280;51033;42.648;23.292;2022-11-15T01:12:28;94372.56;;;6.77;52.96
30935;BME280;51033;42.648;23.292;2022-11-15T01:14:54;94384.16;;;6.81;52.76
30935;BME280;51033;42.648;23.292;2022-11-15T01:17:19;94356.25;;;6.65;52.80
30935;BME280;51033;42.648;23.292;2022-11-15T01:19:45;94343.63;;;6.57;52.70
30935;BME280;51033;42.648;23.292;2022-11-15T01:22:10;94362.59;;;6.69;52.82
30935;BME280;51033;42.648;23.292;2022-11-15T01:24:36;94382.88;;;6.79;52.88
30935;BME280;51033;42.648;23.292;2022-11-15T01:27:01;94350.50;;;6.58;52.91
30935;BME280;51033;42.648;23.292;2022-11-15T01:29:26;94340.22;;;6.52;52.63
30935;BME280;51033;42.648;23.292;2022-11-15T01:31:53;94375.25;;;6.72;52.99
30935;BME280;51033;42.648;23.292;2022-11-15T01:34:19;94340.78;;;6.49;53.24
30935;BME280;51033;42.648;23.292;2022-11-15T01:36:44;94361.31;;;6.57;53.10
30935;BME280;51033;42.648;23.292;2022-11-15T01:39:09;94367.94;;;6.59;52.94
30935;BME280;51033;42.648;23.292;2022-11-15T01:41:35;94348.97;;;6.47;52.91
30935;BME280;51033;42.648;23.292;2022-11-15T01:46:58;94336.84;;;6.41;53.04
30935;BME280;51033;42.648;23.292;2022-11-15T01:49:25;94365.75;;;6.66;53.02
30935;BME280;51033;42.648;23.292;2022-11-15T01:51:53;94363.44;;;6.60;53.04
30935;BME280;51033;42.648;23.292;2022-11-15T01:54:20;94347.66;;;6.50;53.01
30935;BME280;51033;42.648;23.292;2022-11-15T01:56:52;94342.63;;;6.48;52.98
30935;BME280;51033;42.648;23.292;2022-11-15T01:59:19;94362.88;;;6.63;52.85
30935;BME280;51033;42.648;23.292;2022-11-15T02:01:45;94368.16;;;6.63;53.07
30935;BME280;51033;42.648;23.292;2022-11-15T02:04:12;94376.09;;;6.63;52.98
30935;BME280;51033;42.648;23.292;2022-11-15T02:06:38;94363.16;;;6.61;53.15
30935;BME280;51033;42.648;23.292;2022-11-15T02:09:05;94375.56;;;6.61;52.88
30935;BME280;51033;42.648;23.292;2022-11-15T02:11:31;94340.81;;;6.43;52.94
30935;BME280;51033;42.648;23.292;2022-11-15T02:13:58;94338.97;;;6.44;53.00
30935;BME280;51033;42.648;23.292;2022-11-15T02:25:39;94345.25;;;6.53;53.23
30935;BME280;51033;42.648;23.292;2022-11-15T02:36:33;94353.66;;;6.60;53.28
30935;BME280;51033;42.648;23.292;2022-11-15T02:41:44;94358.38;;;6.63;53.13
30935;BME280;51033;42.648;23.292;2022-11-15T02:44:14;94354.94;;;6.63;53.12
30935;BME280;51033;42.648;23.292;2022-11-15T02:46:47;94343.63;;;6.57;53.18
30935;BME280;51033;42.648;23.292;2022-11-15T02:49:34;94333.13;;;6.47;53.33
30935;BME280;51033;42.648;23.292;2022-11-15T02:52:00;94356.00;;;6.62;53.43
30935;BME280;51033;42.648;23.292;2022-11-15T02:54:32;94342.03;;;6.56;53.18
30935;BME280;51033;42.648;23.292;2022-11-15T02:57:47;94339.91;;;6.58;53.70
30935;BME280;51033;42.648;23.292;2022-11-15T03:05:39;94354.19;;;6.57;53.96
30935;BME280;51033;42.648;23.292;2022-11-15T03:08:15;94325.03;;;6.33;54.07
30935;BME280;51033;42.648;23.292;2022-11-15T03:11:13;94363.13;;;6.66;54.15
30935;BME280;51033;42.648;23.292;2022-11-15T03:13:59;94357.81;;;6.66;54.40
30935;BME280;51033;42.648;23.292;2022-11-15T03:16:35;94329.41;;;6.48;54.48
30935;BME280;51033;42.648;23.292;2022-11-15T03:19:19;94351.44;;;6.72;54.40
30935;BME280;51033;42.648;23.292;2022-11-15T03:21:47;94356.69;;;6.77;54.75
30935;BME280;51033;42.648;23.292;2022-11-15T03:24:15;94348.78;;;6.77;54.61
30935;BME280;51033;42.648;23.292;2022-11-15T03:26:45;94342.13;;;6.80;54.89
30935;BME280;51033;42.648;23.292;2022-11-15T03:29:19;94309.78;;;6.59;55.10
30935;BME280;51033;42.648;23.292;2022-11-15T03:31:48;94349.75;;;6.86;55.40
30935;BME280;51033;42.648;23.292;2022-11-15T03:34:25;94343.19;;;6.84;55.59
30935;BME280;51033;42.648;23.292;2022-11-15T03:36:52;94328.63;;;6.81;55.80
30935;BME280;51033;42.648;23.292;2022-11-15T03:39:19;94312.84;;;6.71;55.91
30935;BME280;51033;42.648;23.292;2022-11-15T03:44:54;94331.47;;;6.90;56.14
30935;BME280;51033;42.648;23.292;2022-11-15T03:47:39;94328.56;;;6.92;55.80
30935;BME280;51033;42.648;23.292;2022-11-15T03:50:12;94314.63;;;6.81;55.16
30935;BME280;51033;42.648;23.292;2022-11-15T03:52:39;94308.06;;;6.78;54.58
30935;BME280;51033;42.648;23.292;2022-11-15T03:55:10;94317.56;;;6.79;54.00
30935;BME280;51033;42.648;23.292;2022-11-15T03:57:36;94322.34;;;6.77;53.80
30935;BME280;51033;42.648;23.292;2022-11-15T04:00:05;94317.59;;;6.74;53.32
30935;BME280;51033;42.648;23.292;2022-11-15T04:02:31;94268.22;;;6.36;53.52
30935;BME280;51033;42.648;23.292;2022-11-15T04:04:56;94306.63;;;6.57;54.39
30935;BME280;51033;42.648;23.292;2022-11-15T04:07:21;94314.50;;;6.62;54.74
30935;BME280;51033;42.648;23.292;2022-11-15T04:09:47;94322.41;;;6.67;54.90
30935;BME280;51033;42.648;23.292;2022-11-15T04:12:31;94293.22;;;6.49;54.96
30935;BME280;51033;42.648;23.292;2022-11-15T04:20:28;94279.44;;;6.52;54.82
30935;BME280;51033;42.648;23.292;2022-11-15T04:23:22;94288.72;;;6.49;55.13
30935;BME280;51033;42.648;23.292;2022-11-15T04:26:08;94303.16;;;6.62;55.25
30935;BME280;51033;42.648;23.292;2022-11-15T04:28:35;94281.88;;;6.43;55.30
30935;BME280;51033;42.648;23.292;2022-11-15T04:31:21;94310.09;;;6.53;55.82
30935;BME280;51033;42.648;23.292;2022-11-15T04:33:46;94309.56;;;6.51;55.58
30935;BME280;51033;42.648;23.292;2022-11-15T04:36:11;94307.47;;;6.48;56.06
30935;BME280;51033;42.648;23.292;2022-11-15T04:38:55;94308.28;;;6.48;55.74
30935;BME280;51033;42.648;23.292;2022-11-15T04:41:21;94298.31;;;6.40;55.66
30935;BME280;51033;42.648;23.292;2022-11-15T04:43:46;94317.25;;;6.47;55.82
30935;BME280;51033;42.648;23.292;2022-11-15T04:46:11;94280.44;;;6.22;55.53
30935;BME280;51033;42.648;23.292;2022-11-15T04:48:37;94291.53;;;6.24;56.21
30935;BME280;51033;42.648;23.292;2022-11-15T04:51:02;94316.81;;;6.35;56.39
30935;BME280;51033;42.648;23.292;2022-11-15T04:53:27;94312.03;;;6.37;56.37
30935;BME280;51033;42.648;23.292;2022-11-15T04:55:53;94321.06;;;6.36;56.59
30935;BME280;51033;42.648;23.292;2022-11-15T04:58:18;94302.63;;;6.26;57.03
30935;BME280;51033;42.648;23.292;2022-11-15T05:00:43;94317.88;;;6.34;56.65
30935;BME280;51033;42.648;23.292;2022-11-15T05:03:09;94315.28;;;6.29;56.79
30935;BME280;51033;42.648;23.292;2022-11-15T05:05:53;94291.31;;;6.10;56.97
30935;BME280;51033;42.648;23.292;2022-11-15T05:08:19;94307.66;;;6.22;57.33
30935;BME280;51033;42.648;23.292;2022-11-15T05:10:45;94322.66;;;6.27;57.36
30935;BME280;51033;42.648;23.292;2022-11-15T05:13:10;94316.34;;;6.28;57.53
30935;BME280;51033;42.648;23.292;2022-11-15T05:15:35;94278.44;;;5.98;57.49
30935;BME280;51033;42.648;23.292;2022-11-15T05:18:01;94282.91;;;6.03;57.66
30935;BME280;51033;42.648;23.292;2022-11-15T05:20:26;94318.44;;;6.31;57.01
30935;BME280;51033;42.648;23.292;2022-11-15T05:22:53;94317.88;;;6.34;57.36
30935;BME280;51033;42.648;23.292;2022-11-15T05:25:20;94307.09;;;6.30;57.21
30935;BME280;51033;42.648;23.292;2022-11-15T05:27:46;94281.53;;;6.21;57.42
30935;BME280;51033;42.648;23.292;2022-11-15T05:30:11;94309.94;;;6.39;57.25
30935;BME280;51033;42.648;23.292;2022-11-15T05:32:36;94280.47;;;6.17;57.55
30935;BME280;51033;42.648;23.292;2022-11-15T05:35:02;94312.00;;;6.42;57.64
30935;BME280;51033;42.648;23.292;2022-11-15T05:37:30;94314.13;;;6.45;57.91
30935;BME280;51033;42.648;23.292;2022-11-15T05:39:55;94306.16;;;6.50;57.84
30935;BME280;51033;42.648;23.292;2022-11-15T05:42:21;94297.72;;;6.48;57.78
30935;BME280;51033;42.648;23.292;2022-11-15T05:44:48;94272.72;;;6.35;58.11
30935;BME280;51033;42.648;23.292;2022-11-15T05:47:22;94309.00;;;6.59;58.01
30935;BME280;51033;42.648;23.292;2022-11-15T05:49:49;94293.44;;;6.52;58.26
30935;BME280;51033;42.648;23.292;2022-11-15T05:52:21;94296.09;;;6.52;58.38
30935;BME280;51033;42.648;23.292;2022-11-15T05:54:48;94310.34;;;6.51;58.64
30935;BME280;51033;42.648;23.292;2022-11-15T05:57:14;94316.25;;;6.43;59.47
30935;BME280;51033;42.648;23.292;2022-11-15T05:59:40;94294.63;;;6.36;59.24
30935;BME280;51033;42.648;23.292;2022-11-15T06:02:08;94278.84;;;6.26;59.49
30935;BME280;51033;42.648;23.292;2022-11-15T06:04:34;94310.69;;;6.45;59.49
30935;BME280;51033;42.648;23.292;2022-11-15T06:06:59;94318.09;;;6.42;60.04
30935;BME280;51033;42.648;23.292;2022-11-15T06:09:25;94319.88;;;6.52;60.02
30935;BME280;51033;42.648;23.292;2022-11-15T06:11:50;94298.03;;;6.36;60.05
30935;BME280;51033;42.648;23.292;2022-11-15T06:14:15;94305.66;;;6.43;60.19
30935;BME280;51033;42.648;23.292;2022-11-15T06:16:41;94306.19;;;6.45;59.90
30935;BME280;51033;42.648;23.292;2022-11-15T06:19:06;94305.63;;;6.48;59.88
30935;BME280;51033;42.648;23.292;2022-11-15T06:21:32;94326.66;;;6.63;59.84
30935;BME280;51033;42.648;23.292;2022-11-15T06:23:58;94319.56;;;6.59;59.94
30935;BME280;51033;42.648;23.292;2022-11-15T06:26:23;94307.19;;;6.54;59.99
30935;BME280;51033;42.648;23.292;2022-11-15T06:28:49;94323.44;;;6.71;59.60
30935;BME280;51033;42.648;23.292;2022-11-15T06:31:14;94315.22;;;6.73;59.80
30935;BME280;51033;42.648;23.292;2022-11-15T06:33:40;94315.69;;;6.80;59.55
30935;BME280;51033;42.648;23.292;2022-11-15T06:36:08;94307.00;;;6.79;59.57
30935;BME280;51033;42.648;23.292;2022-11-15T06:38:34;94306.31;;;6.64;60.00
30935;BME280;51033;42.648;23.292;2022-11-15T06:41:04;94310.75;;;6.73;60.02
30935;BME280;51033;42.648;23.292;2022-11-15T06:43:29;94279.78;;;6.45;59.68
30935;BME280;51033;42.648;23.292;2022-11-15T06:45:55;94311.31;;;6.65;59.81
30935;BME280;51033;42.648;23.292;2022-11-15T06:48:20;94314.25;;;6.64;59.73
30935;BME280;51033;42.648;23.292;2022-11-15T06:50:53;94295.09;;;6.43;59.75
30935;BME280;51033;42.648;23.292;2022-11-15T06:53:19;94290.31;;;6.50;59.79
30935;BME280;51033;42.648;23.292;2022-11-15T06:55:45;94286.03;;;6.54;59.83
30935;BME280;51033;42.648;23.292;2022-11-15T06:58:10;94275.78;;;6.48;59.82
30935;BME280;51033;42.648;23.292;2022-11-15T07:00:35;94314.94;;;6.79;59.80
30935;BME280;51033;42.648;23.292;2022-11-15T07:03:01;94306.50;;;6.72;59.96
30935;BME280;51033;42.648;23.292;2022-11-15T07:05:27;94311.78;;;6.72;59.99
30935;BME280;51033;42.648;23.292;2022-11-15T07:07:54;94312.56;;;6.78;59.80
30935;BME280;51033;42.648;23.292;2022-11-15T07:10:20;94299.28;;;6.83;60.09
30935;BME280;51033;42.648;23.292;2022-11-15T07:12:48;94280.34;;;6.37;60.66
30935;BME280;51033;42.648;23.292;2022-11-15T07:15:14;94277.59;;;6.52;60.18
30935;BME280;51033;42.648;23.292;2022-11-15T07:17:40;94297.56;;;6.68;60.06
30935;BME280;51033;42.648;23.292;2022-11-15T07:20:06;94296.16;;;6.76;60.29
30935;BME280;51033;42.648;23.292;2022-11-15T07:22:31;94280.03;;;6.43;60.50
30935;BME280;51033;42.648;23.292;2022-11-15T07:24:57;94292.34;;;6.58;60.44
30935;BME280;51033;42.648;23.292;2022-11-15T07:27:22;94243.69;;;6.30;60.11
30935;BME280;51033;42.648;23.292;2022-11-15T07:29:47;94305.91;;;6.80;60.40
30935;BME280;51033;42.648;23.292;2022-11-15T07:32:13;94290.69;;;6.67;60.22
30935;BME280;51033;42.648;23.292;2022-11-15T07:34:38;94286.34;;;6.48;61.09
30935;BME280;51033;42.648;23.292;2022-11-15T07:37:03;94299.19;;;6.64;61.31
30935;BME280;51033;42.648;23.292;2022-11-15T07:39:29;94280.75;;;6.54;60.70
30935;BME280;51033;42.648;23.292;2022-11-15T07:41:54;94309.63;;;6.79;60.74
30935;BME280;51033;42.648;23.292;2022-11-15T07:44:40;94279.09;;;6.63;60.59
30935;BME280;51033;42.648;23.292;2022-11-15T07:47:05;94311.69;;;6.88;60.33
30935;BME280;51033;42.648;23.292;2022-11-15T07:49:30;94286.16;;;6.73;60.54
30935;BME280;51033;42.648;23.292;2022-11-15T07:51:56;94298.22;;;6.84;59.93
30935;BME280;51033;42.648;23.292;2022-11-15T07:54:21;94280.81;;;6.78;60.42
30935;BME280;51033;42.648;23.292;2022-11-15T07:56:47;94301.84;;;6.93;60.23
30935;BME280;51033;42.648;23.292;2022-11-15T07:59:12;94295.78;;;6.93;60.04
30935;BME280;51033;42.648;23.292;2022-11-15T08:01:37;94298.84;;;6.37;61.35
30935;BME280;51033;42.648;23.292;2022-11-15T08:04:03;94263.06;;;6.11;62.12
30935;BME280;51033;42.648;23.292;2022-11-15T08:06:28;94296.91;;;6.48;62.25
30935;BME280;51033;42.648;23.292;2022-11-15T08:08:54;94296.66;;;6.49;62.31
30935;BME280;51033;42.648;23.292;2022-11-15T08:11:19;94225.81;;;6.12;61.91
30935;BME280;51033;42.648;23.292;2022-11-15T08:13:45;94275.44;;;6.59;61.84
30935;BME280;51033;42.648;23.292;2022-11-15T08:16:10;94294.22;;;6.86;61.47
30935;BME280;51033;42.648;23.292;2022-11-15T08:18:37;94296.91;;;6.81;61.66
30935;BME280;51033;42.648;23.292;2022-11-15T08:21:03;94285.44;;;6.62;61.90
30935;BME280;51033;42.648;23.292;2022-11-15T08:23:29;94287.84;;;6.59;62.23
30935;BME280;51033;42.648;23.292;2022-11-15T08:26:02;94293.94;;;6.59;62.67
30935;BME280;51033;42.648;23.292;2022-11-15T08:28:28;94287.13;;;6.48;62.98
30935;BME280;51033;42.648;23.292;2022-11-15T08:30:53;94278.59;;;6.56;62.97
30935;BME280;51033;42.648;23.292;2022-11-15T08:33:18;94278.28;;;6.29;63.33
30935;BME280;51033;42.648;23.292;2022-11-15T08:35:44;94256.31;;;5.89;64.63
30935;BME280;51033;42.648;23.292;2022-11-15T08:38:09;94247.44;;;6.14;64.26
30935;BME280;51033;42.648;23.292;2022-11-15T08:40:35;94265.59;;;6.31;63.74
30935;BME280;51033;42.648;23.292;2022-11-15T08:43:01;94256.69;;;6.12;63.82
30935;BME280;51033;42.648;23.292;2022-11-15T08:45:28;94285.97;;;6.64;63.60
30935;BME280;51033;42.648;23.292;2022-11-15T08:47:54;94247.63;;;6.33;63.61
30935;BME280;51033;42.648;23.292;2022-11-15T08:50:19;94249.75;;;6.31;63.40
30935;BME280;51033;42.648;23.292;2022-11-15T08:52:45;94252.47;;;6.55;62.88
30935;BME280;51033;42.648;23.292;2022-11-15T08:55:10;94283.16;;;6.84;62.16
30935;BME280;51033;42.648;23.292;2022-11-15T08:57:36;94256.59;;;6.66;62.21
30935;BME280;51033;42.648;23.292;2022-11-15T09:00:02;94267.88;;;6.76;62.63
30935;BME280;51033;42.648;23.292;2022-11-15T09:02:28;94246.91;;;6.56;62.43
30935;BME280;51033;42.648;23.292;2022-11-15T09:04:53;94265.16;;;6.86;62.26
30935;BME280;51033;42.648;23.292;2022-11-15T09:07:18;94240.59;;;6.81;61.88
30935;BME280;51033;42.648;23.292;2022-11-15T09:09:44;94257.22;;;6.86;62.46
30935;BME280;51033;42.648;23.292;2022-11-15T09:12:09;94222.09;;;6.81;62.23
30935;BME280;51033;42.648;23.292;2022-11-15T09:14:35;94252.75;;;6.53;62.86
30935;BME280;51033;42.648;23.292;2022-11-15T09:17:01;94239.31;;;6.78;62.58
30935;BME280;51033;42.648;23.292;2022-11-15T09:19:26;94240.44;;;6.72;61.84
30935;BME280;51033;42.648;23.292;2022-11-15T09:21:52;94211.34;;;6.72;62.27
30935;BME280;51033;42.648;23.292;2022-11-15T09:24:17;94239.34;;;7.02;61.55
30935;BME280;51033;42.648;23.292;2022-11-15T09:26:43;94230.63;;;7.02;61.61
30935;BME280;51033;42.648;23.292;2022-11-15T09:29:09;94193.75;;;6.86;61.33
30935;BME280;51033;42.648;23.292;2022-11-15T09:31:34;94216.72;;;7.15;60.77
30935;BME280;51033;42.648;23.292;2022-11-15T09:34:00;94189.88;;;6.79;61.24
30935;BME280;51033;42.648;23.292;2022-11-15T09:36:25;94224.66;;;7.15;60.77
30935;BME280;51033;42.648;23.292;2022-11-15T09:38:51;94206.56;;;7.03;61.41
30935;BME280;51033;42.648;23.292;2022-11-15T09:44:29;94149.63;;;6.58;62.12
30935;BME280;51033;42.648;23.292;2022-11-15T09:49:24;94189.72;;;6.94;61.98
30935;BME280;51033;42.648;23.292;2022-11-15T09:51:53;94174.25;;;6.82;61.83
30935;BME280;51033;42.648;23.292;2022-11-15T09:54:31;94212.13;;;7.25;61.70
30935;BME280;51033;42.648;23.292;2022-11-15T09:57:30;94212.22;;;7.39;61.93
30935;BME280;51033;42.648;23.292;2022-11-15T10:02:41;94186.22;;;7.46;61.33
30935;BME280;51033;42.648;23.292;2022-11-15T10:05:11;94189.72;;;7.60;60.89
30935;BME280;51033;42.648;23.292;2022-11-15T10:08:02;94185.16;;;7.66;60.72
30935;BME280;51033;42.648;23.292;2022-11-15T10:10:42;94172.41;;;7.49;60.63
30935;BME280;51033;42.648;23.292;2022-11-15T10:15:48;94150.28;;;7.40;61.42
30935;BME280;51033;42.648;23.292;2022-11-15T10:20:50;94169.53;;;7.46;62.32
30935;BME280;51033;42.648;23.292;2022-11-15T10:23:19;94155.16;;;7.33;62.68
30935;BME280;51033;42.648;23.292;2022-11-15T10:25:46;94166.88;;;7.27;63.31
30935;BME280;51033;42.648;23.292;2022-11-15T10:28:16;94159.69;;;7.51;62.71
30935;BME280;51033;42.648;23.292;2022-11-15T10:30:47;94145.84;;;7.54;62.40
30935;BME280;51033;42.648;23.292;2022-11-15T10:33:33;94146.81;;;7.21;63.52
30935;BME280;51033;42.648;23.292;2022-11-15T10:39:10;94143.06;;;7.46;62.97
30935;BME280;51033;42.648;23.292;2022-11-15T10:41:39;94140.28;;;7.37;63.18
30935;BME280;51033;42.648;23.292;2022-11-15T10:46:46;94127.13;;;7.69;62.55
30935;BME280;51033;42.648;23.292;2022-11-15T10:49:18;94108.94;;;7.25;63.16
30935;BME280;51033;42.648;23.292;2022-11-15T10:51:47;94117.78;;;7.16;63.86
30935;BME280;51033;42.648;23.292;2022-11-15T10:54:17;94115.53;;;7.47;63.52
30935;BME280;51033;42.648;23.292;2022-11-15T10:56:52;94105.28;;;7.59;62.80
30935;BME280;51033;42.648;23.292;2022-11-15T10:59:26;94108.00;;;7.78;62.17
30935;BME280;51033;42.648;23.292;2022-11-15T11:01:52;94074.31;;;7.59;61.28
30935;BME280;51033;42.648;23.292;2022-11-15T11:04:17;94098.38;;;7.82;61.51
30935;BME280;51033;42.648;23.292;2022-11-15T11:09:38;94100.56;;;7.93;60.37
30935;BME280;51033;42.648;23.292;2022-11-15T11:12:10;94087.47;;;8.02;60.29
30935;BME280;51033;42.648;23.292;2022-11-15T11:14:38;94046.50;;;7.81;60.25
30935;BME280;51033;42.648;23.292;2022-11-15T11:25:34;94066.97;;;8.53;57.97
30935;BME280;51033;42.648;23.292;2022-11-15T11:28:30;94067.16;;;8.71;57.63
30935;BME280;51033;42.648;23.292;2022-11-15T11:33:33;94046.94;;;8.88;57.19
30935;BME280;51033;42.648;23.292;2022-11-15T11:39:00;94042.38;;;9.16;55.53
30935;BME280;51033;42.648;23.292;2022-11-15T11:41:43;94037.94;;;9.25;55.04
30935;BME280;51033;42.648;23.292;2022-11-15T11:49:33;94013.47;;;9.28;54.32
30935;BME280;51033;42.648;23.292;2022-11-15T11:52:10;94000.03;;;9.47;54.32
30935;BME280;51033;42.648;23.292;2022-11-15T11:54:51;94021.50;;;9.59;53.49
30935;BME280;51033;42.648;23.292;2022-11-15T11:57:51;94019.78;;;9.77;53.42
30935;BME280;51033;42.648;23.292;2022-11-15T12:00:21;94008.38;;;9.76;52.89
30935;BME280;51033;42.648;23.292;2022-11-15T12:02:56;93999.81;;;9.88;53.42
30935;BME280;51033;42.648;23.292;2022-11-15T12:08:09;93989.94;;;10.02;52.27
30935;BME280;51033;42.648;23.292;2022-11-15T12:10:41;93956.88;;;9.86;51.84
30935;BME280;51033;42.648;23.292;2022-11-15T12:13:16;93965.78;;;9.90;52.49
30935;BME280;51033;42.648;23.292;2022-11-15T12:15:57;93970.91;;;10.17;52.20
30935;BME280;51033;42.648;23.292;2022-11-15T12:18:25;93974.97;;;10.15;51.70
30935;BME280;51033;42.648;23.292;2022-11-15T12:21:00;93969.38;;;10.16;51.46
30935;BME280;51033;42.648;23.292;2022-11-15T12:23:32;93965.09;;;10.38;51.21
30935;BME280;51033;42.648;23.292;2022-11-15T12:26:07;93948.16;;;10.33;50.97
30935;BME280;51033;42.648;23.292;2022-11-15T12:28:57;93948.41;;;10.46;50.87
30935;BME280;51033;42.648;23.292;2022-11-15T12:31:39;93933.03;;;10.43;51.28
30935;BME280;51033;42.648;23.292;2022-11-15T12:36:47;93950.72;;;10.39;50.59
30935;BME280;51033;42.648;23.292;2022-11-15T12:39:13;93934.81;;;10.16;50.90
30935;BME280;51033;42.648;23.292;2022-11-15T12:42:00;93949.34;;;10.50;50.76
30935;BME280;51033;42.648;23.292;2022-11-15T13:02:24;93927.38;;;10.36;51.04
30935;BME280;51033;42.648;23.292;2022-11-15T13:04:51;93922.44;;;10.51;50.82
30935;BME280;51033;42.648;23.292;2022-11-15T13:12:50;93927.66;;;10.82;49.76
30935;BME280;51033;42.648;23.292;2022-11-15T13:15:33;93918.13;;;10.98;49.82
30935;BME280;51033;42.648;23.292;2022-11-15T13:18:40;93919.31;;;10.66;49.95
30935;BME280;51033;42.648;23.292;2022-11-15T13:21:19;93914.84;;;10.84;50.05
30935;BME280;51033;42.648;23.292;2022-11-15T13:24:03;93911.88;;;11.03;49.83
30935;BME280;51033;42.648;23.292;2022-11-15T13:26:29;93884.16;;;10.95;49.88
30935;BME280;51033;42.648;23.292;2022-11-15T13:28:54;93900.75;;;11.09;49.04
30935;BME280;51033;42.648;23.292;2022-11-15T13:31:44;93899.81;;;11.14;49.06
30935;BME280;51033;42.648;23.292;2022-11-15T13:34:30;93905.41;;;11.30;49.14
30935;BME280;51033;42.648;23.292;2022-11-15T13:37:01;93907.00;;;11.31;49.12
30935;BME280;51033;42.648;23.292;2022-11-15T13:39:34;93915.75;;;11.40;49.34
30935;BME280;51033;42.648;23.292;2022-11-15T13:42:02;93899.63;;;11.36;49.11
30935;BME280;51033;42.648;23.292;2022-11-15T13:44:31;93889.78;;;11.28;49.07
30935;BME280;51033;42.648;23.292;2022-11-15T13:47:22;93898.84;;;11.36;49.29
30935;BME280;51033;42.648;23.292;2022-11-15T13:49:47;93894.16;;;11.33;49.53
30935;BME280;51033;42.648;23.292;2022-11-15T13:52:14;93895.91;;;11.29;49.36
30935;BME280;51033;42.648;23.292;2022-11-15T13:54:46;93867.53;;;11.15;49.63
30935;BME280;51033;42.648;23.292;2022-11-15T13:59:47;93895.56;;;11.30;49.75
30935;BME280;51033;42.648;23.292;2022-11-15T14:02:16;93878.50;;;11.23;49.85
30935;BME280;51033;42.648;23.292;2022-11-15T14:04:53;93877.25;;;11.20;49.95
30935;BME280;51033;42.648;23.292;2022-11-15T14:07:21;93892.31;;;11.25;50.21
30935;BME280;51033;42.648;23.292;2022-11-15T14:09:47;93896.34;;;11.22;49.73
30935;BME280;51033;42.648;23.292;2022-11-15T14:12:39;93889.47;;;11.12;49.92
30935;BME280;51033;42.648;23.292;2022-11-15T14:15:31;93899.19;;;10.83;50.76
30935;BME280;51033;42.648;23.292;2022-11-15T14:17:57;93889.31;;;10.74;50.93
30935;BME280;51033;42.648;23.292;2022-11-15T14:22:59;93891.78;;;10.62;51.19
30935;BME280;51033;42.648;23.292;2022-11-15T14:25:27;93886.31;;;10.59;51.28
30935;BME280;51033;42.648;23.292;2022-11-15T14:30:38;93861.91;;;10.48;51.03
30935;BME280;51033;42.648;23.292;2022-11-15T14:33:30;93886.66;;;10.66;51.00
30935;BME280;51033;42.648;23.292;2022-11-15T14:35:59;93891.78;;;10.62;50.82
30935;BME280;51033;42.648;23.292;2022-11-15T14:38:27;93876.31;;;10.56;50.92
30935;BME280;51033;42.648;23.292;2022-11-15T14:40:53;93882.56;;;10.51;50.85
30935;BME280;51033;42.648;23.292;2022-11-15T14:43:20;93859.19;;;10.31;50.94
30935;BME280;51033;42.648;23.292;2022-11-15T14:45:45;93848.06;;;10.20;50.96
30935;BME280;51033;42.648;23.292;2022-11-15T14:48:11;93878.25;;;10.33;50.89
30935;BME280;51033;42.648;23.292;2022-11-15T14:50:36;93872.78;;;10.29;50.81
30935;BME280;51033;42.648;23.292;2022-11-15T14:53:03;93852.72;;;10.06;50.88
30935;BME280;51033;42.648;23.292;2022-11-15T14:55:32;93885.13;;;10.25;50.87
30935;BME280;51033;42.648;23.292;2022-11-15T14:58:01;93881.53;;;10.21;50.99
30935;BME280;51033;42.648;23.292;2022-11-15T15:00:28;93867.72;;;10.02;51.25
30935;BME280;51033;42.648;23.292;2022-11-15T15:02:54;93857.34;;;9.92;51.17
30935;BME280;51033;42.648;23.292;2022-11-15T15:05:22;93882.06;;;10.01;51.23